Time;durP1;ratioP1;P1;durP2;ratioP2;P2;SDS_P1;SDS_P2;PMS_P1;PMS_P2;Temp;Humidity;BMP_temperature;BMP_pressure;BME280_temperature;BME280_humidity;BME280_pressure;Samples;Min_cycle;Max_cycle;Signal;HPM_P1;HPM_P2
2021/09/15 00:02:21;;;;;;;10.30;6.00;;;24.40;51.60;;;;;;5120223;28;20533;-86
2021/09/15 00:04:48;;;;;;;14.90;7.00;;;24.30;52.00;;;;;;5124038;28;20530;-85
2021/09/15 00:07:15;;;;;;;11.97;6.50;;;24.20;52.20;;;;;;5122798;28;20454;-84
2021/09/15 00:09:42;;;;;;;8.80;5.87;;;24.00;53.00;;;;;;5122273;28;20861;-84
2021/09/15 00:12:09;;;;;;;17.63;6.40;;;24.00;52.90;;;;;;5121098;28;20473;-84
2021/09/15 00:14:36;;;;;;;8.67;5.97;;;24.00;53.00;;;;;;5117721;27;20533;-84
2021/09/15 00:17:03;;;;;;;8.37;6.50;;;23.90;53.20;;;;;;5118013;28;20499;-84
2021/09/15 00:19:31;;;;;;;11.60;6.07;;;23.80;53.90;;;;;;5117656;28;20449;-84
2021/09/15 00:21:58;;;;;;;12.37;6.37;;;23.70;54.00;;;;;;5118577;28;20453;-84
2021/09/15 00:24:25;;;;;;;26.10;6.70;;;23.70;54.10;;;;;;5117958;28;20493;-86
2021/09/15 00:26:52;;;;;;;9.73;5.93;;;23.70;53.90;;;;;;5117804;28;20955;-85
2021/09/15 00:29:19;;;;;;;14.57;6.90;;;23.80;53.80;;;;;;5118033;28;20470;-85
2021/09/15 00:31:46;;;;;;;9.47;6.10;;;23.80;54.20;;;;;;5117385;28;20429;-85
2021/09/15 00:34:13;;;;;;;9.13;6.60;;;23.60;54.50;;;;;;5117693;28;20978;-85
2021/09/15 00:36:41;;;;;;;11.40;6.90;;;23.80;54.10;;;;;;5117481;28;20437;-85
2021/09/15 00:39:08;;;;;;;18.60;6.83;;;24.00;54.20;;;;;;5118339;28;20532;-85
2021/09/15 00:41:36;;;;;;;14.53;7.43;;;23.90;54.80;;;;;;5117610;28;20895;-85
2021/09/15 00:44:07;;;;;;;7.40;6.30;;;23.90;54.30;;;;;;5126640;28;20472;-84
2021/09/15 00:46:34;;;;;;;20.33;7.50;;;24.10;53.80;;;;;;5127770;28;20430;-84
2021/09/15 00:49:01;;;;;;;21.07;7.13;;;23.90;54.50;;;;;;5126576;28;20446;-84
2021/09/15 00:51:29;;;;;;;11.43;6.67;;;23.70;55.00;;;;;;5121300;28;20590;-85
2021/09/15 00:53:57;;;;;;;10.47;6.70;;;23.80;54.90;;;;;;5115225;28;20529;-85
2021/09/15 00:56:26;;;;;;;15.10;7.70;;;23.90;54.30;;;;;;5114322;28;20552;-85
2021/09/15 00:58:53;;;;;;;7.60;5.87;;;24.10;54.00;;;;;;5115047;28;20482;-85
2021/09/15 01:01:20;;;;;;;8.53;6.23;;;24.10;53.30;;;;;;5114478;28;20463;-85
2021/09/15 01:03:47;;;;;;;10.23;6.93;;;24.20;52.60;;;;;;5114719;28;20437;-85
2021/09/15 01:06:14;;;;;;;11.83;7.00;;;24.30;53.10;;;;;;5115065;28;20474;-85
2021/09/15 01:08:42;;;;;;;15.70;6.47;;;24.50;51.90;;;;;;5115501;28;20448;-85
2021/09/15 01:11:11;;;;;;;12.40;6.37;;;24.60;52.20;;;;;;5115451;28;20485;-85
2021/09/15 01:13:38;;;;;;;13.70;7.17;;;24.50;52.10;;;;;;5115192;28;20549;-85
2021/09/15 01:16:06;;;;;;;10.80;7.33;;;24.50;52.40;;;;;;5115611;28;20546;-85
2021/09/15 01:18:33;;;;;;;8.40;6.33;;;24.50;52.60;;;;;;5115325;28;20499;-84
2021/09/15 01:21:02;;;;;;;13.03;6.67;;;24.40;52.70;;;;;;5114865;28;20438;-85
2021/09/15 01:23:29;;;;;;;24.83;7.20;;;24.30;52.60;;;;;;5115769;28;20536;-85
2021/09/15 01:25:56;;;;;;;12.23;6.77;;;24.30;53.20;;;;;;5118695;28;20461;-84
2021/09/15 01:28:23;;;;;;;10.53;6.53;;;24.20;53.00;;;;;;5137299;28;20434;-84
2021/09/15 01:30:50;;;;;;;14.03;5.80;;;24.00;53.40;;;;;;5138342;28;20469;-84
2021/09/15 01:33:19;;;;;;;10.90;7.13;;;24.10;53.00;;;;;;5138227;28;20452;-84
2021/09/15 01:35:46;;;;;;;15.90;7.27;;;24.10;53.50;;;;;;5137797;28;20507;-84
2021/09/15 01:38:15;;;;;;;13.20;6.23;;;23.90;54.10;;;;;;5116566;28;20510;-85
2021/09/15 01:40:42;;;;;;;15.67;6.70;;;23.90;54.20;;;;;;5116819;28;20453;-85
2021/09/15 01:43:09;;;;;;;12.67;7.27;;;23.90;53.90;;;;;;5118476;28;20465;-85
2021/09/15 01:45:38;;;;;;;14.73;6.97;;;23.90;54.80;;;;;;5118473;28;20553;-85
2021/09/15 01:48:05;;;;;;;15.90;7.43;;;24.00;53.80;;;;;;5119287;28;20461;-85
2021/09/15 01:50:32;;;;;;;19.03;8.63;;;24.30;53.30;;;;;;5118329;28;20429;-85
2021/09/15 01:52:59;;;;;;;11.23;7.33;;;24.20;53.30;;;;;;5119197;28;20456;-86
2021/09/15 01:55:29;;;;;;;9.20;6.30;;;24.20;53.20;;;;;;5119144;28;20481;-85
2021/09/15 01:57:56;;;;;;;10.90;7.90;;;24.10;53.40;;;;;;5119424;28;20445;-85
2021/09/15 02:00:23;;;;;;;14.40;7.77;;;24.10;53.40;;;;;;5119589;28;20477;-85
2021/09/15 02:02:50;;;;;;;9.60;7.13;;;24.10;53.10;;;;;;5117037;28;20456;-86
2021/09/15 02:05:17;;;;;;;11.30;7.50;;;24.10;53.50;;;;;;5131990;28;20449;-84
2021/09/15 02:07:44;;;;;;;12.90;8.10;;;24.10;53.40;;;;;;5137925;28;20495;-84
2021/09/15 02:10:13;;;;;;;14.63;7.10;;;24.10;53.50;;;;;;5135724;28;20454;-85
2021/09/15 02:12:41;;;;;;;23.13;6.63;;;24.00;53.70;;;;;;5115493;28;20450;-85
2021/09/15 02:15:10;;;;;;;14.00;7.10;;;24.10;53.40;;;;;;5131147;28;20559;-84
2021/09/15 02:17:37;;;;;;;12.33;7.00;;;24.20;53.30;;;;;;5138038;28;20430;-84
2021/09/15 02:20:06;;;;;;;13.17;4.87;;;24.00;53.70;;;;;;5137630;28;20474;-83
2021/09/15 02:22:33;;;;;;;11.70;6.70;;;24.10;52.10;;;;;;5138127;28;20437;-84
2021/09/15 02:25:00;;;;;;;11.83;7.47;;;23.90;53.50;;;;;;5137630;28;20457;-84
2021/09/15 02:27:27;;;;;;;9.43;6.60;;;23.90;54.00;;;;;;5136011;28;20446;-84
2021/09/15 02:29:55;;;;;;;25.73;7.60;;;24.00;53.70;;;;;;5137266;28;20440;-85
2021/09/15 02:32:22;;;;;;;11.33;7.83;;;24.00;53.60;;;;;;5137317;28;20437;-84
2021/09/15 02:34:49;;;;;;;9.33;6.07;;;23.90;53.90;;;;;;5135726;28;20477;-85
2021/09/15 02:37:16;;;;;;;12.67;6.70;;;23.70;54.10;;;;;;5113701;28;20454;-85
2021/09/15 02:39:43;;;;;;;10.70;6.53;;;23.80;54.00;;;;;;5113923;28;20983;-85
2021/09/15 02:42:10;;;;;;;14.87;6.57;;;23.90;53.80;;;;;;5112937;28;20495;-85
2021/09/15 02:44:37;;;;;;;8.63;6.30;;;23.90;53.90;;;;;;5113527;28;20548;-85
2021/09/15 02:47:05;;;;;;;13.07;7.70;;;23.90;53.90;;;;;;5112731;28;20476;-85
2021/09/15 02:49:32;;;;;;;17.00;7.50;;;24.00;53.50;;;;;;5112127;28;20487;-84
2021/09/15 02:51:59;;;;;;;13.67;8.80;;;24.10;53.30;;;;;;5113456;28;20536;-85
2021/09/15 02:54:26;;;;;;;13.63;8.13;;;24.20;53.40;;;;;;5113866;28;20912;-85
2021/09/15 02:56:53;;;;;;;9.53;7.23;;;24.20;53.20;;;;;;5113401;28;20537;-85
2021/09/15 02:59:20;;;;;;;13.20;7.93;;;24.10;53.60;;;;;;5113759;28;20513;-85
2021/09/15 03:01:47;;;;;;;9.93;6.77;;;24.20;53.50;;;;;;5113113;28;20496;-85
2021/09/15 03:04:15;;;;;;;11.83;6.77;;;24.10;52.80;;;;;;5112280;28;20529;-85
2021/09/15 03:06:42;;;;;;;11.97;7.00;;;24.10;53.50;;;;;;5113574;28;20485;-85
2021/09/15 03:09:09;;;;;;;12.00;7.30;;;24.30;53.00;;;;;;5113977;28;20494;-86
2021/09/15 03:11:36;;;;;;;14.87;7.30;;;24.30;53.00;;;;;;5115594;28;20776;-85
2021/09/15 03:14:03;;;;;;;19.33;8.93;;;24.00;53.60;;;;;;5117998;28;20536;-85
2021/09/15 03:16:30;;;;;;;9.60;6.40;;;24.00;54.10;;;;;;5117406;27;20469;-85
2021/09/15 03:18:57;;;;;;;17.77;10.13;;;23.90;54.30;;;;;;5117909;28;20481;-85
2021/09/15 03:21:25;;;;;;;19.17;8.17;;;24.00;54.00;;;;;;5118083;28;20479;-85
2021/09/15 03:23:52;;;;;;;11.47;6.10;;;23.90;54.50;;;;;;5115494;28;20480;-84
2021/09/15 03:26:19;;;;;;;14.90;8.10;;;23.90;53.40;;;;;;5116936;27;20510;-84
2021/09/15 03:28:46;;;;;;;13.07;6.93;;;24.00;53.70;;;;;;5117269;28;20502;-85
2021/09/15 03:31:13;;;;;;;11.63;7.73;;;23.90;54.30;;;;;;5118033;28;20517;-84
2021/09/15 03:33:40;;;;;;;18.60;8.87;;;23.90;53.50;;;;;;5116326;28;20449;-84
2021/09/15 03:36:07;;;;;;;18.57;7.40;;;23.80;54.20;;;;;;5118167;28;20884;-85
2021/09/15 03:38:36;;;;;;;12.33;6.33;;;23.90;53.90;;;;;;5118089;28;20505;-84
2021/09/15 03:41:03;;;;;;;10.57;6.60;;;23.90;53.70;;;;;;5124308;28;20453;-84
2021/09/15 03:43:30;;;;;;;9.83;6.33;;;23.90;53.00;;;;;;5129450;27;20436;-84
2021/09/15 03:45:57;;;;;;;10.27;6.90;;;23.90;54.00;;;;;;5136081;28;20457;-85
2021/09/15 03:48:24;;;;;;;17.23;6.93;;;23.80;53.60;;;;;;5136276;28;20449;-84
2021/09/15 03:50:51;;;;;;;10.40;7.20;;;23.80;54.30;;;;;;5138470;28;20430;-84
2021/09/15 03:53:18;;;;;;;11.50;6.80;;;23.80;53.80;;;;;;5138146;28;20475;-84
2021/09/15 03:55:46;;;;;;;13.07;6.57;;;23.60;54.90;;;;;;5136547;28;20494;-84
2021/09/15 03:58:13;;;;;;;16.70;7.40;;;23.40;55.60;;;;;;5138018;28;20433;-84
2021/09/15 04:00:40;;;;;;;12.80;6.90;;;23.50;55.40;;;;;;5135729;27;20467;-86
2021/09/15 04:03:07;;;;;;;10.43;6.93;;;23.50;55.30;;;;;;5136025;27;20447;-85
2021/09/15 04:05:34;;;;;;;20.50;9.13;;;23.60;54.90;;;;;;5138196;28;20491;-85
2021/09/15 04:08:01;;;;;;;9.43;6.70;;;23.60;54.90;;;;;;5136334;27;20444;-84
2021/09/15 04:10:28;;;;;;;7.67;5.77;;;23.80;55.10;;;;;;5136773;28;20441;-84
2021/09/15 04:12:56;;;;;;;14.30;7.40;;;23.70;54.60;;;;;;5137772;28;20459;-85
2021/09/15 04:15:23;;;;;;;14.20;7.40;;;23.80;54.90;;;;;;5137131;28;20512;-85
2021/09/15 04:17:50;;;;;;;12.33;7.23;;;23.80;54.30;;;;;;5136690;28;20459;-85
2021/09/15 04:20:17;;;;;;;11.93;5.87;;;23.80;55.10;;;;;;5129859;27;20442;-85
2021/09/15 04:22:44;;;;;;;10.00;6.40;;;23.80;54.30;;;;;;5115774;28;20438;-85
2021/09/15 04:33:25;;;;;;;12.47;7.83;;;23.90;54.20;;;;;;5115834;28;20414;-85
2021/09/15 04:35:52;;;;;;;13.83;6.60;;;23.40;55.70;;;;;;5116843;28;20501;-85
2021/09/15 04:38:19;;;;;;;13.60;6.67;;;23.10;56.40;;;;;;5116162;28;20438;-85
2021/09/15 04:40:46;;;;;;;25.00;7.03;;;23.10;57.10;;;;;;5114594;28;20436;-85
2021/09/15 04:43:15;;;;;;;15.07;8.17;;;23.20;57.30;;;;;;5115747;28;20532;-85
2021/09/15 04:45:42;;;;;;;9.40;7.67;;;23.30;57.00;;;;;;5115470;28;20496;-85
2021/09/15 04:48:09;;;;;;;19.20;7.83;;;23.30;56.80;;;;;;5115086;28;20442;-85
2021/09/15 04:50:36;;;;;;;16.17;8.23;;;23.20;57.40;;;;;;5117819;28;20461;-85
2021/09/15 04:53:03;;;;;;;15.37;7.83;;;23.00;58.30;;;;;;5121323;28;20428;-86
2021/09/15 04:55:32;;;;;;;12.50;7.53;;;23.10;58.00;;;;;;5118424;28;20469;-85
2021/09/15 04:57:59;;;;;;;19.47;8.50;;;23.20;58.00;;;;;;5116234;28;20450;-86
2021/09/15 05:00:27;;;;;;;9.23;7.50;;;23.20;58.30;;;;;;5116638;28;20511;-86
2021/09/15 05:02:54;;;;;;;11.13;7.63;;;23.30;57.50;;;;;;5115445;28;20510;-87
2021/09/15 05:05:21;;;;;;;13.30;8.37;;;23.40;57.30;;;;;;5115193;28;20497;-86
2021/09/15 05:07:48;;;;;;;18.80;8.50;;;23.40;57.30;;;;;;5114186;28;20564;-86
2021/09/15 05:10:15;;;;;;;13.30;7.70;;;23.10;58.00;;;;;;5114623;28;20462;-86
2021/09/15 05:12:42;;;;;;;13.07;8.67;;;23.20;58.20;;;;;;5115206;28;20536;-86
2021/09/15 05:15:10;;;;;;;12.80;8.30;;;23.20;58.10;;;;;;5114226;28;21004;-86
2021/09/15 05:17:38;;;;;;;10.00;7.60;;;23.20;58.00;;;;;;5114265;28;20958;-86
2021/09/15 05:20:06;;;;;;;18.63;7.67;;;23.20;57.90;;;;;;5115428;28;20528;-86
2021/09/15 05:22:33;;;;;;;40.07;9.00;;;23.40;57.70;;;;;;5114667;28;20994;-86
2021/09/15 05:25:00;;;;;;;15.50;8.27;;;23.20;58.00;;;;;;5114299;28;20453;-86
2021/09/15 05:27:27;;;;;;;17.97;8.97;;;23.10;58.40;;;;;;5115792;28;20474;-87
2021/09/15 05:29:54;;;;;;;18.50;8.63;;;23.20;58.00;;;;;;5115189;28;20445;-86
2021/09/15 05:32:21;;;;;;;14.47;7.63;;;23.40;57.50;;;;;;5115160;28;21018;-87
2021/09/15 05:34:49;;;;;;;15.00;7.70;;;23.40;57.40;;;;;;5118698;28;20469;-87
2021/09/15 05:37:16;;;;;;;12.00;6.30;;;23.40;57.50;;;;;;5121401;28;20468;-86
2021/09/15 05:39:43;;;;;;;17.50;8.40;;;23.40;57.90;;;;;;5120432;28;20477;-87
2021/09/15 05:42:10;;;;;;;17.87;8.87;;;23.30;57.80;;;;;;5120592;28;20449;-87
2021/09/15 05:44:36;;;;;;;14.00;9.00;;;23.30;58.40;;;;;;5121288;28;20450;-87
2021/09/15 05:47:04;;;;;;;11.60;8.00;;;23.40;58.20;;;;;;5120000;28;20449;-87
2021/09/15 05:49:31;;;;;;;15.50;9.30;;;23.70;57.50;;;;;;5118423;28;20453;-87
2021/09/15 05:51:59;;;;;;;11.73;8.40;;;23.70;57.70;;;;;;5118761;28;20838;-87
2021/09/15 05:54:26;;;;;;;15.40;9.10;;;23.80;56.50;;;;;;5118924;28;20522;-88
2021/09/15 05:56:53;;;;;;;16.40;8.10;;;24.00;56.70;;;;;;5116207;28;20487;-87
2021/09/15 05:59:20;;;;;;;8.63;7.33;;;24.10;56.40;;;;;;5116489;28;20438;-88
2021/09/15 06:01:47;;;;;;;20.03;8.30;;;24.10;56.60;;;;;;5116081;28;20477;-87
2021/09/15 06:04:14;;;;;;;17.70;9.23;;;24.30;56.20;;;;;;5116466;28;20897;-87
2021/09/15 06:06:41;;;;;;;12.80;8.67;;;24.10;56.80;;;;;;5115495;28;20453;-87
2021/09/15 06:09:09;;;;;;;14.33;8.53;;;24.10;56.80;;;;;;5115669;28;20515;-87
2021/09/15 06:11:36;;;;;;;14.33;8.77;;;24.10;56.60;;;;;;5116485;28;20446;-88
2021/09/15 06:14:03;;;;;;;12.50;8.53;;;24.00;56.80;;;;;;5117477;28;20500;-88
2021/09/15 06:16:30;;;;;;;13.30;8.90;;;23.90;57.00;;;;;;5121622;28;20516;-87
2021/09/15 06:18:57;;;;;;;16.00;9.33;;;23.90;56.80;;;;;;5134225;28;20456;-87
2021/09/15 06:21:25;;;;;;;12.40;8.93;;;23.90;56.50;;;;;;5130992;28;20467;-87
2021/09/15 06:23:52;;;;;;;13.30;7.93;;;23.70;57.30;;;;;;5129443;28;20437;-87
2021/09/15 06:26:24;;;;;;;13.60;7.97;;;23.70;58.00;;;;;;5130368;28;20478;-87
2021/09/15 06:28:51;;;;;;;22.60;9.10;;;23.70;57.80;;;;;;5122669;28;20465;-87
2021/09/15 06:31:18;;;;;;;20.17;9.33;;;23.70;57.70;;;;;;5123472;28;20449;-87
2021/09/15 06:33:45;;;;;;;12.57;8.70;;;23.70;58.00;;;;;;5124321;28;20436;-86
2021/09/15 06:36:12;;;;;;;15.33;8.40;;;23.60;57.80;;;;;;5125707;28;20485;-86
2021/09/15 06:38:41;;;;;;;13.53;9.03;;;23.40;58.40;;;;;;5122500;28;20444;-87
2021/09/15 06:41:08;;;;;;;11.83;8.00;;;23.50;58.30;;;;;;5118963;28;20474;-87
2021/09/15 06:43:37;;;;;;;13.63;7.97;;;23.80;57.20;;;;;;5117915;28;20504;-86
2021/09/15 06:46:04;;;;;;;13.57;8.90;;;23.80;56.10;;;;;;5122367;28;20457;-86
2021/09/15 06:48:31;;;;;;;9.60;6.23;;;23.90;57.10;;;;;;5123038;28;20480;-86
2021/09/15 06:50:57;;;;;;;16.50;8.47;;;24.10;56.30;;;;;;5123564;28;20475;-86
2021/09/15 06:53:24;;;;;;;15.80;8.80;;;24.10;56.60;;;;;;5122620;28;20479;-86
2021/09/15 06:55:51;;;;;;;18.20;9.47;;;23.90;57.30;;;;;;5123180;28;20536;-86
2021/09/15 06:58:18;;;;;;;15.60;9.53;;;23.80;58.00;;;;;;5124133;28;20465;-86
2021/09/15 07:00:47;;;;;;;14.07;9.33;;;23.90;57.80;;;;;;5122738;28;20492;-85
2021/09/15 07:03:14;;;;;;;12.77;10.00;;;24.00;57.60;;;;;;5122418;28;20456;-85
2021/09/15 07:05:41;;;;;;;12.10;8.30;;;23.90;57.50;;;;;;5121188;28;20483;-85
2021/09/15 07:08:08;;;;;;;21.67;9.13;;;23.80;58.30;;;;;;5121222;28;20495;-86
2021/09/15 07:10:37;;;;;;;12.90;8.90;;;23.80;58.20;;;;;;5124716;28;20489;-85
2021/09/15 07:13:04;;;;;;;14.67;9.13;;;23.70;58.30;;;;;;5140925;28;20472;-84
2021/09/15 07:15:31;;;;;;;18.47;8.27;;;23.70;59.10;;;;;;5141151;27;20481;-85
2021/09/15 07:17:59;;;;;;;12.07;8.07;;;23.80;58.60;;;;;;5134191;28;20429;-85
2021/09/15 07:20:26;;;;;;;12.03;8.60;;;24.10;55.80;;;;;;5127308;27;20426;-85
2021/09/15 07:22:53;;;;;;;12.30;8.30;;;24.30;56.80;;;;;;5140313;28;20500;-84
2021/09/15 07:25:20;;;;;;;14.93;8.60;;;24.30;57.00;;;;;;5141152;28;20469;-84
2021/09/15 07:27:47;;;;;;;15.77;8.27;;;24.30;57.40;;;;;;5140931;28;20502;-84
2021/09/15 07:30:14;;;;;;;16.77;10.03;;;24.10;57.80;;;;;;5140099;28;20437;-85
2021/09/15 07:32:41;;;;;;;21.50;8.57;;;24.10;58.50;;;;;;5118359;28;20501;-85
2021/09/15 07:35:12;;;;;;;22.33;11.17;;;24.00;59.30;;;;;;5118114;28;20469;-85
2021/09/15 07:37:40;;;;;;;18.67;9.60;;;23.90;59.10;;;;;;5117692;28;20923;-85
2021/09/15 07:40:08;;;;;;;16.80;10.10;;;24.00;58.70;;;;;;5117693;28;20448;-85
2021/09/15 07:42:35;;;;;;;18.40;8.73;;;24.20;58.30;;;;;;5117741;28;20477;-85
2021/09/15 07:45:03;;;;;;;18.90;8.90;;;24.20;58.20;;;;;;5117793;28;20504;-85
2021/09/15 07:47:29;;;;;;;13.40;8.30;;;24.30;58.10;;;;;;5117443;28;20490;-85
2021/09/15 07:49:56;;;;;;;22.50;9.33;;;23.90;58.40;;;;;;5117164;28;20484;-85
2021/09/15 07:52:25;;;;;;;17.60;8.87;;;23.90;59.20;;;;;;5117229;28;20487;-85
2021/09/15 07:54:52;;;;;;;18.97;8.80;;;23.80;59.30;;;;;;5116988;28;20942;-85
2021/09/15 07:57:20;;;;;;;16.40;9.80;;;23.80;59.80;;;;;;5116656;28;20561;-85
2021/09/15 07:59:47;;;;;;;20.90;9.10;;;23.90;59.70;;;;;;5117060;28;20467;-85
2021/09/15 08:02:14;;;;;;;16.10;9.43;;;24.10;59.30;;;;;;5116942;28;20859;-85
2021/09/15 08:04:41;;;;;;;28.20;10.10;;;24.00;59.50;;;;;;5117005;28;20505;-85
2021/09/15 08:07:08;;;;;;;35.53;8.80;;;24.00;60.30;;;;;;5116134;28;20867;-85
2021/09/15 08:09:36;;;;;;;17.93;9.23;;;24.30;58.90;;;;;;5116750;28;20549;-85
2021/09/15 08:12:04;;;;;;;13.00;8.80;;;24.50;58.30;;;;;;5116637;28;20951;-85
2021/09/15 08:14:32;;;;;;;24.77;10.20;;;24.80;58.00;;;;;;5116094;28;20518;-85
2021/09/15 08:17:00;;;;;;;14.90;10.17;;;24.80;57.70;;;;;;5115009;28;20469;-85
2021/09/15 08:19:27;;;;;;;15.20;10.73;;;24.80;57.50;;;;;;5115511;28;20438;-85
2021/09/15 08:21:54;;;;;;;17.13;10.60;;;24.70;57.70;;;;;;5115124;28;20501;-85
2021/09/15 08:24:21;;;;;;;19.23;9.80;;;24.80;57.40;;;;;;5115409;28;20457;-85
2021/09/15 08:26:50;;;;;;;19.53;10.40;;;24.80;57.30;;;;;;5114745;28;20473;-85
2021/09/15 08:29:17;;;;;;;13.50;8.57;;;24.80;57.20;;;;;;5115194;27;20517;-85
2021/09/15 08:31:44;;;;;;;18.47;9.00;;;24.70;56.90;;;;;;5115307;28;20453;-85
2021/09/15 08:34:11;;;;;;;12.63;7.43;;;24.70;57.50;;;;;;5115482;28;20537;-85
2021/09/15 08:36:38;;;;;;;13.00;6.67;;;24.70;56.60;;;;;;5115421;28;20564;-85
2021/09/15 08:39:05;;;;;;;12.27;8.80;;;24.70;56.20;;;;;;5115187;28;20473;-85
2021/09/15 08:41:32;;;;;;;14.57;6.83;;;24.60;55.90;;;;;;5114717;28;20445;-86
2021/09/15 08:44:00;;;;;;;19.43;7.13;;;24.30;56.40;;;;;;5115321;28;20453;-86
2021/09/15 08:46:29;;;;;;;11.47;6.20;;;24.10;57.10;;;;;;5115593;28;20516;-86
2021/09/15 08:48:59;;;;;;;19.27;7.93;;;24.10;57.00;;;;;;5115859;28;20815;-86
2021/09/15 08:51:27;;;;;;;14.43;6.80;;;24.00;57.60;;;;;;5115250;28;20429;-86
2021/09/15 08:53:55;;;;;;;10.90;6.57;;;23.80;58.40;;;;;;5114635;28;20451;-86
2021/09/15 08:56:22;;;;;;;14.90;6.60;;;23.90;58.00;;;;;;5114486;28;20486;-86
2021/09/15 08:58:49;;;;;;;17.00;6.80;;;23.60;58.60;;;;;;5114617;28;20537;-86
2021/09/15 09:01:19;;;;;;;10.83;6.47;;;23.40;59.70;;;;;;5114496;28;20461;-86
2021/09/15 09:03:47;;;;;;;12.73;7.60;;;22.90;61.30;;;;;;5114310;28;20485;-86
2021/09/15 09:06:15;;;;;;;8.70;6.80;;;22.70;61.30;;;;;;5114503;27;20842;-85
2021/09/15 09:08:45;;;;;;;11.17;7.90;;;22.70;61.70;;;;;;5113076;28;20441;-86
2021/09/15 09:11:14;;;;;;;10.33;7.00;;;23.00;61.40;;;;;;5114208;28;20887;-85
2021/09/15 09:13:48;;;;;;;13.67;7.30;;;23.10;60.70;;;;;;5114230;28;20908;-86
2021/09/15 09:16:18;;;;;;;9.87;5.90;;;23.00;60.90;;;;;;5114198;28;20487;-86
2021/09/15 09:18:58;;;;;;;16.33;5.37;;;22.60;60.40;;;;;;5114684;28;20544;-86
2021/09/15 09:21:27;;;;;;;8.97;6.10;;;22.40;60.80;;;;;;5114290;28;20477;-87
2021/09/15 09:23:57;;;;;;;8.90;5.10;;;22.50;60.70;;;;;;5114291;28;20449;-87
2021/09/15 09:26:43;;;;;;;9.83;5.60;;;22.30;60.70;;;;;;5118272;28;20454;-86
2021/09/15 09:29:12;;;;;;;12.93;5.00;;;21.90;61.80;;;;;;5119467;28;20505;-86
2021/09/15 09:31:40;;;;;;;6.33;5.23;;;21.50;63.80;;;;;;5114354;28;20445;-86
2021/09/15 09:34:07;;;;;;;11.83;5.47;;;21.40;64.00;;;;;;5114151;28;20810;-87
2021/09/15 09:36:34;;;;;;;8.20;5.07;;;21.80;63.50;;;;;;5113733;28;20592;-87
2021/09/15 09:39:10;;;;;;;10.67;5.67;;;21.60;63.80;;;;;;5113942;28;20499;-87
2021/09/15 09:41:37;;;;;;;18.00;5.30;;;21.70;63.80;;;;;;5113427;28;20417;-86
2021/09/15 09:44:04;;;;;;;12.53;5.30;;;21.80;64.50;;;;;;5113819;28;20480;-87
2021/09/15 09:46:33;;;;;;;18.63;8.00;;;22.10;63.60;;;;;;5113963;28;20544;-86
2021/09/15 09:49:04;;;;;;;11.23;5.80;;;22.30;62.70;;;;;;5114022;28;20488;-87
2021/09/15 09:51:33;;;;;;;16.07;6.10;;;22.50;63.00;;;;;;5114169;27;20510;-87
2021/09/15 09:54:21;;;;;;;9.03;5.10;;;22.20;62.90;;;;;;5113958;27;20446;-86
2021/09/15 09:56:50;;;;;;;8.43;5.33;;;22.20;63.80;;;;;;5113689;28;20465;-85
2021/09/15 09:59:17;;;;;;;9.40;5.10;;;22.20;64.00;;;;;;5114250;28;20430;-86
2021/09/15 10:01:46;;;;;;;9.10;5.43;;;22.40;62.90;;;;;;5114226;28;20974;-86
2021/09/15 10:04:16;;;;;;;7.93;5.10;;;22.40;63.60;;;;;;5114178;28;20532;-86
2021/09/15 10:06:43;;;;;;;12.30;5.37;;;22.60;62.50;;;;;;5113554;28;20552;-86
2021/09/15 10:09:11;;;;;;;13.00;5.70;;;23.00;61.80;;;;;;5114249;28;20426;-86
2021/09/15 10:11:40;;;;;;;8.83;4.67;;;23.20;61.60;;;;;;5113914;28;20449;-86
2021/09/15 10:14:10;;;;;;;10.80;4.80;;;23.30;60.90;;;;;;5121666;28;20455;-86
2021/09/15 10:16:42;;;;;;;9.10;4.50;;;23.50;61.30;;;;;;5136511;28;20454;-86
2021/09/15 10:19:13;;;;;;;8.73;5.80;;;23.60;60.70;;;;;;5137010;28;20438;-85
2021/09/15 10:21:41;;;;;;;9.90;4.60;;;23.70;60.60;;;;;;5137000;28;20461;-86
2021/09/15 10:24:08;;;;;;;7.23;4.47;;;23.90;59.60;;;;;;5133815;28;20931;-86
2021/09/15 10:26:38;;;;;;;8.90;5.03;;;23.80;59.50;;;;;;5113191;28;20488;-86
2021/09/15 10:29:26;;;;;;;7.63;4.57;;;24.10;59.40;;;;;;5113866;28;20457;-86
2021/09/15 10:31:57;;;;;;;11.37;5.20;;;24.50;58.20;;;;;;5114140;28;20429;-86
2021/09/15 10:34:50;;;;;;;11.67;5.03;;;24.30;58.80;;;;;;5114180;28;20530;-85
2021/09/15 10:37:56;;;;;;;9.00;4.70;;;24.20;59.30;;;;;;5113937;28;20776;-86
2021/09/15 10:40:45;;;;;;;11.57;5.67;;;23.90;58.50;;;;;;5113534;28;20472;-86
2021/09/15 10:43:52;;;;;;;10.97;6.00;;;23.90;59.00;;;;;;5113414;28;20429;-86
2021/09/15 10:46:27;;;;;;;8.10;5.00;;;23.90;59.10;;;;;;5113753;28;21029;-86
2021/09/15 10:49:30;;;;;;;11.97;5.93;;;24.00;58.90;;;;;;5113879;28;20427;-86
2021/09/15 10:52:45;;;;;;;10.27;5.50;;;23.90;59.60;;;;;;5113529;28;20441;-86
2021/09/15 10:55:23;;;;;;;6.90;5.27;;;23.80;60.70;;;;;;5050313;28;20499;-86
2021/09/15 10:57:52;;;;;;;9.23;4.73;;;24.10;59.60;;;;;;5103082;28;20488;-86
2021/09/15 11:00:29;;;;;;;6.90;4.93;;;24.40;59.10;;;;;;5116492;28;20429;-86
2021/09/15 11:03:16;;;;;;;10.00;5.10;;;24.40;58.50;;;;;;5114789;28;20490;-86
2021/09/15 11:05:44;;;;;;;9.33;4.93;;;24.60;57.80;;;;;;5113462;28;20556;-85
2021/09/15 11:08:22;;;;;;;11.30;5.60;;;24.60;58.10;;;;;;5114766;28;20548;-85
2021/09/15 11:10:49;;;;;;;10.30;4.80;;;24.40;57.40;;;;;;5114062;28;20548;-85
2021/09/15 11:13:45;;;;;;;10.93;5.00;;;24.30;57.90;;;;;;5116766;28;20525;-85
2021/09/15 11:16:33;;;;;;;9.30;6.10;;;24.20;57.40;;;;;;5114790;28;20462;-86
2021/09/15 11:19:02;;;;;;;8.40;4.90;;;24.10;58.30;;;;;;5116939;28;20430;-85
2021/09/15 11:21:31;;;;;;;8.03;4.67;;;24.50;57.40;;;;;;5115174;28;20547;-86
2021/09/15 11:24:00;;;;;;;7.60;5.00;;;24.80;56.60;;;;;;5115614;28;20437;-86
2021/09/15 11:26:43;;;;;;;10.10;5.57;;;24.90;56.90;;;;;;5114777;28;20473;-86
2021/09/15 11:29:12;;;;;;;23.03;6.10;;;24.80;56.30;;;;;;5114192;28;20555;-86
2021/09/15 11:31:40;;;;;;;12.20;6.10;;;24.70;57.50;;;;;;5116785;28;20529;-86
2021/09/15 11:34:09;;;;;;;11.10;5.17;;;24.80;57.50;;;;;;5118045;28;20445;-86
2021/09/15 11:36:37;;;;;;;10.10;5.80;;;25.10;55.90;;;;;;5118560;28;20528;-86
2021/09/15 11:39:06;;;;;;;6.33;5.30;;;25.30;56.40;;;;;;5117879;28;20500;-86
2021/09/15 11:41:33;;;;;;;13.43;5.70;;;25.80;54.90;;;;;;5118268;28;20532;-85
2021/09/15 11:44:00;;;;;;;7.60;4.80;;;25.80;53.50;;;;;;5117686;28;20515;-85
2021/09/15 11:46:34;;;;;;;16.40;6.33;;;25.70;53.70;;;;;;5118258;28;20497;-85
2021/09/15 11:49:02;;;;;;;14.63;5.87;;;25.90;53.50;;;;;;5117405;28;20982;-85
2021/09/15 11:51:33;;;;;;;10.80;5.50;;;25.70;53.10;;;;;;5119167;28;20421;-85
2021/09/15 11:54:04;;;;;;;11.13;5.93;;;25.40;53.70;;;;;;5119202;28;20483;-85
2021/09/15 11:56:36;;;;;;;11.53;5.20;;;25.40;55.40;;;;;;5117948;28;20886;-85
2021/09/15 11:59:04;;;;;;;9.23;5.13;;;25.50;53.80;;;;;;5121668;28;20911;-85
2021/09/15 12:01:35;;;;;;;11.17;5.97;;;25.20;54.60;;;;;;5120264;27;20453;-85
2021/09/15 12:04:05;;;;;;;8.43;4.73;;;25.40;54.00;;;;;;5120603;28;20464;-85
2021/09/15 12:06:32;;;;;;;7.50;5.10;;;25.10;54.00;;;;;;5118807;28;20433;-86
2021/09/15 12:09:00;;;;;;;10.03;4.80;;;25.50;53.40;;;;;;5119684;27;20497;-85
2021/09/15 12:11:31;;;;;;;14.57;5.40;;;25.50;53.60;;;;;;5120205;28;20434;-86
2021/09/15 12:13:59;;;;;;;10.83;5.30;;;25.70;52.80;;;;;;5121079;28;20485;-85
2021/09/15 12:16:28;;;;;;;10.43;4.83;;;26.30;53.60;;;;;;5120095;28;20839;-85
2021/09/15 12:18:57;;;;;;;7.00;4.80;;;26.50;51.00;;;;;;5127654;28;20508;-85
2021/09/15 12:21:25;;;;;;;8.67;5.00;;;26.50;51.90;;;;;;5133938;28;20426;-85
2021/09/15 12:24:02;;;;;;;9.07;4.60;;;27.00;50.30;;;;;;5140156;28;20422;-84
2021/09/15 12:26:30;;;;;;;6.67;4.50;;;27.20;48.50;;;;;;5120458;28;20617;-85
2021/09/15 12:29:01;;;;;;;9.50;4.10;;;27.40;48.20;;;;;;5129911;28;20434;-85
2021/09/15 12:31:42;;;;;;;6.10;4.50;;;27.20;46.20;;;;;;5139524;28;20451;-84
2021/09/15 12:34:11;;;;;;;20.00;4.53;;;27.10;46.90;;;;;;5140027;28;20489;-84
2021/09/15 12:36:38;;;;;;;17.13;4.93;;;26.70;47.80;;;;;;5137785;28;20453;-85
2021/09/15 12:39:10;;;;;;;9.23;4.73;;;26.90;48.00;;;;;;5115515;28;20563;-85
2021/09/15 12:41:51;;;;;;;7.10;4.20;;;27.00;48.10;;;;;;5116211;28;20468;-85
2021/09/15 12:44:23;;;;;;;7.83;4.43;;;27.10;48.00;;;;;;5115154;28;20433;-85
2021/09/15 12:46:52;;;;;;;8.60;4.37;;;27.00;46.00;;;;;;5115850;27;20521;-85
2021/09/15 12:49:33;;;;;;;7.97;4.60;;;26.60;46.70;;;;;;5116102;28;20453;-85
2021/09/15 12:52:05;;;;;;;6.23;3.80;;;26.60;46.00;;;;;;5114886;28;20405;-85
2021/09/15 12:54:33;;;;;;;5.83;3.60;;;26.80;46.60;;;;;;5114994;28;20480;-85
2021/09/15 12:57:17;;;;;;;9.90;4.47;;;27.30;44.90;;;;;;5114656;28;20485;-85